Time;durP1;ratioP1;P1;durP2;ratioP2;P2;SDS_P1;SDS_P2;PMS_P1;PMS_P2;Temp;Humidity;BMP_temperature;BMP_pressure;BME280_temperature;BME280_humidity;BME280_pressure;Samples;Min_cycle;Max_cycle;Signal;HPM_P1;HPM_P2
2024/02/17 00:00:16;;;;;;;37.80;16.13;;;4.70;99.90;;;;;;4929098;29;20464;-76
2024/02/17 00:02:44;;;;;;;37.92;16.77;;;4.70;99.90;;;;;;4933790;29;20055;-76
2024/02/17 00:05:13;;;;;;;37.03;16.17;;;4.70;99.90;;;;;;4937573;29;20062;-77
2024/02/17 00:07:41;;;;;;;42.33;16.80;;;4.70;99.90;;;;;;4918325;29;20055;-78
2024/02/17 00:10:10;;;;;;;37.05;15.48;;;4.60;99.90;;;;;;4937659;29;20046;-78
2024/02/17 00:12:38;;;;;;;41.38;17.80;;;4.60;99.90;;;;;;4936164;29;20051;-78
2024/02/17 00:15:07;;;;;;;39.75;16.58;;;4.60;99.90;;;;;;4933801;29;20115;-77
2024/02/17 00:17:38;;;;;;;37.03;16.27;;;4.50;99.90;;;;;;4936305;29;20055;-76
2024/02/17 00:20:08;;;;;;;42.55;16.63;;;4.50;99.90;;;;;;4927355;29;20048;-76
2024/02/17 00:22:37;;;;;;;36.65;16.70;;;4.50;99.90;;;;;;4935082;29;20044;-77
2024/02/17 00:25:06;;;;;;;38.72;16.83;;;4.50;99.90;;;;;;4930506;29;20046;-77
2024/02/17 00:27:35;;;;;;;38.63;16.42;;;4.50;99.90;;;;;;4911687;29;20115;-77
2024/02/17 00:30:04;;;;;;;40.38;16.95;;;4.40;99.90;;;;;;4927216;29;21354;-77
2024/02/17 00:32:33;;;;;;;36.47;16.98;;;4.40;99.90;;;;;;4912044;29;20051;-77
2024/02/17 00:35:03;;;;;;;39.28;17.13;;;4.40;99.90;;;;;;4924794;29;20043;-77
2024/02/17 00:37:32;;;;;;;43.25;17.15;;;4.40;99.90;;;;;;4928788;29;20048;-76
2024/02/17 00:40:01;;;;;;;43.10;17.15;;;4.40;99.90;;;;;;4912610;29;20103;-77
2024/02/17 00:42:30;;;;;;;37.28;16.45;;;4.40;99.90;;;;;;4925491;29;20489;-77
2024/02/17 00:44:58;;;;;;;43.53;18.40;;;4.30;99.90;;;;;;4917505;29;20055;-77
2024/02/17 00:47:27;;;;;;;42.08;17.65;;;4.30;99.90;;;;;;4923984;29;20051;-77
2024/02/17 00:49:56;;;;;;;40.38;17.27;;;4.30;99.90;;;;;;4916894;29;20070;-77
2024/02/17 00:52:25;;;;;;;43.88;17.88;;;4.20;99.90;;;;;;4919362;29;20047;-76
2024/02/17 00:54:54;;;;;;;48.05;18.98;;;4.20;99.90;;;;;;4934741;29;20059;-76
2024/02/17 00:57:22;;;;;;;51.65;20.33;;;4.20;99.90;;;;;;4939058;29;20122;-77
2024/02/17 00:59:51;;;;;;;47.53;20.17;;;4.20;99.90;;;;;;4931868;29;20066;-77
2024/02/17 01:02:20;;;;;;;55.00;21.73;;;4.20;99.90;;;;;;4934160;29;20047;-77
2024/02/17 01:04:49;;;;;;;47.83;19.88;;;4.10;99.90;;;;;;4938251;29;20064;-77
2024/02/17 01:07:18;;;;;;;43.65;17.50;;;4.10;99.90;;;;;;4916732;29;20056;-76
2024/02/17 01:09:48;;;;;;;45.67;19.05;;;4.20;99.90;;;;;;4916302;29;20048;-77
2024/02/17 01:12:16;;;;;;;45.75;18.80;;;4.20;99.90;;;;;;4931728;29;20119;-77
2024/02/17 01:14:44;;;;;;;49.05;20.60;;;4.20;99.90;;;;;;4932215;29;20139;-76
2024/02/17 01:17:13;;;;;;;45.05;18.73;;;4.10;99.90;;;;;;4931928;29;20051;-76
2024/02/17 01:19:42;;;;;;;46.60;19.80;;;4.10;99.90;;;;;;4915580;29;20048;-77
2024/02/17 01:22:11;;;;;;;46.33;19.02;;;4.10;99.90;;;;;;4919346;29;20044;-76
2024/02/17 01:24:39;;;;;;;49.75;19.35;;;4.10;99.90;;;;;;4936732;29;20043;-76
2024/02/17 01:27:09;;;;;;;45.15;17.75;;;4.10;99.90;;;;;;4932615;29;20082;-77
2024/02/17 01:29:37;;;;;;;50.92;19.17;;;4.10;99.90;;;;;;4910092;29;20047;-77
2024/02/17 01:32:07;;;;;;;42.15;17.75;;;4.00;99.90;;;;;;4910022;29;20048;-79
2024/02/17 01:34:35;;;;;;;47.15;19.58;;;4.00;99.90;;;;;;4932010;29;20044;-73
2024/02/17 01:37:04;;;;;;;44.63;18.67;;;4.00;99.90;;;;;;4921034;29;20470;-75
2024/02/17 01:39:32;;;;;;;49.25;20.45;;;4.00;99.90;;;;;;4933365;29;20087;-75
2024/02/17 01:42:01;;;;;;;51.10;20.88;;;4.00;99.90;;;;;;4930380;29;20134;-75
2024/02/17 01:44:31;;;;;;;42.85;18.30;;;4.00;99.90;;;;;;4917767;29;20424;-75
2024/02/17 01:47:00;;;;;;;42.53;17.98;;;4.00;99.90;;;;;;4917214;29;20055;-76
2024/02/17 01:49:28;;;;;;;45.13;18.08;;;4.00;99.90;;;;;;4933598;29;20539;-75
2024/02/17 01:51:58;;;;;;;46.72;18.88;;;4.00;99.90;;;;;;4920338;29;20032;-76
2024/02/17 01:54:27;;;;;;;48.88;19.58;;;4.00;99.90;;;;;;4934178;29;20123;-75
2024/02/17 01:56:57;;;;;;;48.75;19.77;;;4.00;99.90;;;;;;4935609;29;20050;-75
2024/02/17 01:59:26;;;;;;;55.20;22.48;;;4.00;99.90;;;;;;4935303;29;20568;-75
2024/02/17 02:01:58;;;;;;;57.38;22.92;;;3.90;99.90;;;;;;4920693;29;20497;-75
2024/02/17 02:04:26;;;;;;;52.70;21.83;;;3.80;99.90;;;;;;4918482;29;20078;-75
2024/02/17 02:06:55;;;;;;;48.33;21.27;;;3.80;99.90;;;;;;4921363;29;20123;-75
2024/02/17 02:09:25;;;;;;;46.30;19.33;;;3.80;99.90;;;;;;4938055;29;20493;-76
2024/02/17 02:11:56;;;;;;;47.20;20.08;;;3.80;99.90;;;;;;4936902;29;20059;-75
2024/02/17 02:14:25;;;;;;;46.13;20.20;;;3.80;99.90;;;;;;4921124;29;20052;-76
2024/02/17 02:16:55;;;;;;;54.50;20.90;;;3.80;99.90;;;;;;4923172;29;20040;-75
2024/02/17 02:19:24;;;;;;;53.00;21.08;;;3.70;99.90;;;;;;4933286;29;20055;-76
2024/02/17 02:21:52;;;;;;;43.85;20.33;;;3.70;99.90;;;;;;4937074;29;20126;-77
2024/02/17 02:24:21;;;;;;;43.55;19.10;;;3.70;99.90;;;;;;4926785;29;20481;-77
2024/02/17 02:26:51;;;;;;;50.33;19.80;;;3.70;99.90;;;;;;4920936;29;20048;-76
2024/02/17 02:29:20;;;;;;;47.10;20.55;;;3.70;99.90;;;;;;4917152;29;20058;-77
2024/02/17 02:31:50;;;;;;;50.17;20.90;;;3.70;99.90;;;;;;4936523;29;20077;-76
2024/02/17 02:34:19;;;;;;;48.70;20.63;;;3.60;99.90;;;;;;4941430;29;20047;-77
2024/02/17 02:36:47;;;;;;;49.08;20.92;;;3.60;99.90;;;;;;4926493;29;20039;-76
2024/02/17 02:39:16;;;;;;;46.63;19.10;;;3.50;99.90;;;;;;4922856;29;20119;-77
2024/02/17 02:41:44;;;;;;;47.33;19.85;;;3.50;99.90;;;;;;4938079;29;20054;-77
2024/02/17 02:44:14;;;;;;;50.53;20.27;;;3.50;99.90;;;;;;4922124;29;20071;-76
2024/02/17 02:46:43;;;;;;;49.85;20.60;;;3.50;99.90;;;;;;4932966;29;20509;-76
2024/02/17 02:49:12;;;;;;;49.65;20.25;;;3.50;99.90;;;;;;4893704;29;20120;-76
2024/02/17 02:51:40;;;;;;;42.17;18.98;;;3.50;99.90;;;;;;4941833;29;20409;-76
2024/02/17 02:54:09;;;;;;;51.42;19.52;;;3.50;99.90;;;;;;4932813;29;20138;-76
2024/02/17 02:56:37;;;;;;;44.30;18.67;;;3.50;99.90;;;;;;4936686;29;20457;-76
2024/02/17 02:59:06;;;;;;;46.75;18.85;;;3.50;99.90;;;;;;4924179;29;20067;-76
2024/02/17 03:01:36;;;;;;;42.03;17.77;;;3.50;99.90;;;;;;4922787;29;20045;-76
2024/02/17 03:04:04;;;;;;;38.15;17.25;;;3.40;99.90;;;;;;4918432;29;20051;-76
2024/02/17 03:06:34;;;;;;;46.05;18.17;;;3.40;99.90;;;;;;4936711;29;20055;-76
2024/02/17 03:09:04;;;;;;;42.80;18.77;;;3.40;99.90;;;;;;4934544;29;20052;-76
2024/02/17 03:11:32;;;;;;;42.80;18.45;;;3.40;99.90;;;;;;4921733;29;20119;-76
2024/02/17 03:14:01;;;;;;;39.42;16.83;;;3.40;99.90;;;;;;4917471;29;20048;-76
2024/02/17 03:16:29;;;;;;;40.42;16.70;;;3.40;99.90;;;;;;4932187;29;20078;-76
2024/02/17 03:18:59;;;;;;;41.58;17.33;;;3.30;99.90;;;;;;4938540;29;20099;-76
2024/02/17 03:21:28;;;;;;;39.88;16.15;;;3.30;99.90;;;;;;4925711;29;20055;-76
2024/02/17 03:23:56;;;;;;;46.53;18.15;;;3.30;99.90;;;;;;4921681;29;20554;-77
2024/02/17 03:26:25;;;;;;;45.75;18.50;;;3.30;99.90;;;;;;4935109;29;20082;-76
2024/02/17 03:28:53;;;;;;;40.45;16.25;;;3.20;99.90;;;;;;4919414;29;20070;-76
2024/02/17 03:31:23;;;;;;;41.35;17.92;;;3.20;99.90;;;;;;4922052;29;20051;-77
2024/02/17 03:33:52;;;;;;;38.45;15.70;;;3.20;99.90;;;;;;4921053;29;20545;-76
2024/02/17 03:36:22;;;;;;;38.95;18.20;;;3.20;99.90;;;;;;4940239;29;20075;-76
2024/02/17 03:38:50;;;;;;;41.08;17.58;;;3.20;99.90;;;;;;4938122;29;20048;-76
2024/02/17 03:41:18;;;;;;;41.97;17.35;;;3.20;99.90;;;;;;4921271;29;20051;-77
2024/02/17 03:43:47;;;;;;;38.15;16.70;;;3.20;99.90;;;;;;4933071;29;20063;-76
2024/02/17 03:46:16;;;;;;;40.72;17.80;;;3.20;99.90;;;;;;4931763;29;20409;-76
2024/02/17 03:48:45;;;;;;;38.67;17.00;;;3.10;99.90;;;;;;4939340;29;20071;-76
2024/02/17 03:51:14;;;;;;;44.80;17.83;;;3.10;99.90;;;;;;4924102;29;20520;-76
2024/02/17 03:53:44;;;;;;;38.40;16.27;;;3.10;99.90;;;;;;4935117;29;20047;-76
2024/02/17 03:56:15;;;;;;;35.13;15.35;;;3.10;99.90;;;;;;4916767;29;20196;-77
2024/02/17 03:58:43;;;;;;;45.50;17.45;;;3.10;99.90;;;;;;4936405;29;20051;-76
2024/02/17 04:01:12;;;;;;;43.40;18.20;;;3.00;99.90;;;;;;4918587;29;20497;-76
2024/02/17 04:03:40;;;;;;;45.42;16.65;;;3.00;99.90;;;;;;4938185;29;20067;-76
2024/02/17 04:06:09;;;;;;;44.60;18.70;;;3.00;99.90;;;;;;4936965;29;20067;-77
2024/02/17 04:08:38;;;;;;;42.88;18.10;;;3.00;99.90;;;;;;4932708;29;20053;-77
2024/02/17 04:11:09;;;;;;;44.90;18.67;;;3.00;99.90;;;;;;4936662;29;20047;-77
2024/02/17 04:13:38;;;;;;;44.35;16.45;;;2.90;99.90;;;;;;4937209;29;20072;-76
2024/02/17 04:16:07;;;;;;;41.83;17.75;;;3.00;99.90;;;;;;4911750;29;20048;-76
2024/02/17 04:18:36;;;;;;;48.65;17.77;;;3.00;99.90;;;;;;4937176;29;20067;-77
2024/02/17 04:21:05;;;;;;;50.38;18.88;;;2.90;99.90;;;;;;4919853;29;20481;-76
2024/02/17 04:23:34;;;;;;;48.33;18.15;;;2.90;99.90;;;;;;4922406;29;20044;-76
2024/02/17 04:26:05;;;;;;;45.97;19.42;;;2.90;99.90;;;;;;4933913;29;20130;-76
2024/02/17 04:28:35;;;;;;;41.88;17.92;;;2.90;99.90;;;;;;4932983;29;20052;-77
2024/02/17 04:31:06;;;;;;;41.97;17.67;;;2.90;99.90;;;;;;4935236;29;20071;-77
2024/02/17 04:33:34;;;;;;;41.38;17.95;;;2.80;99.90;;;;;;4933127;29;20585;-76
2024/02/17 04:36:04;;;;;;;45.42;18.85;;;2.80;99.90;;;;;;4919223;29;20067;-77
2024/02/17 04:38:32;;;;;;;40.97;17.73;;;2.80;99.90;;;;;;4919829;29;20142;-77
2024/02/17 04:41:02;;;;;;;47.08;18.40;;;2.80;99.90;;;;;;4927642;29;20156;-77
2024/02/17 04:43:30;;;;;;;43.28;17.40;;;2.80;99.90;;;;;;4927107;29;20927;-76
2024/02/17 04:46:00;;;;;;;43.35;17.67;;;2.80;99.90;;;;;;4911174;29;20461;-76
2024/02/17 04:48:28;;;;;;;45.83;18.08;;;2.70;99.90;;;;;;4936748;29;20098;-76
2024/02/17 04:50:57;;;;;;;40.50;18.67;;;2.70;99.90;;;;;;4932258;29;20099;-76
2024/02/17 04:53:25;;;;;;;44.60;19.13;;;2.80;99.90;;;;;;4933953;29;20050;-77
2024/02/17 04:55:54;;;;;;;54.47;21.33;;;2.80;99.90;;;;;;4935882;29;20204;-78
2024/02/17 04:58:22;;;;;;;53.85;23.10;;;2.70;99.90;;;;;;4919908;29;20064;-76
2024/02/17 05:00:50;;;;;;;65.28;24.98;;;2.70;99.90;;;;;;4917464;29;20060;-76
2024/02/17 05:03:20;;;;;;;59.97;25.30;;;2.70;99.90;;;;;;4935350;29;20071;-76
2024/02/17 05:05:49;;;;;;;55.05;25.55;;;2.70;99.90;;;;;;4936286;29;20509;-76
2024/02/17 05:08:18;;;;;;;61.88;24.85;;;2.60;99.90;;;;;;4936282;29;20469;-76
2024/02/17 05:10:46;;;;;;;50.70;20.75;;;2.60;99.90;;;;;;4917131;29;20056;-76
2024/02/17 05:13:14;;;;;;;51.15;20.83;;;2.60;99.90;;;;;;4939263;29;20090;-77
2024/02/17 05:15:43;;;;;;;54.15;21.85;;;2.60;99.90;;;;;;4929218;29;20071;-77
2024/02/17 05:18:12;;;;;;;56.38;23.33;;;2.60;99.90;;;;;;4936776;29;20040;-77
2024/02/17 05:20:42;;;;;;;57.63;23.48;;;2.70;99.90;;;;;;4937286;29;20055;-76
2024/02/17 05:23:11;;;;;;;55.55;22.17;;;2.40;99.90;;;;;;4918346;29;20062;-76
2024/02/17 05:25:39;;;;;;;60.00;23.58;;;2.40;99.90;;;;;;4930633;29;20040;-76
2024/02/17 05:28:08;;;;;;;52.78;22.33;;;2.50;99.90;;;;;;4915160;29;20422;-76
2024/02/17 05:30:36;;;;;;;58.38;23.38;;;2.50;99.90;;;;;;4930293;29;20091;-77
2024/02/17 05:33:05;;;;;;;54.53;21.95;;;2.60;99.90;;;;;;4920751;29;20150;-76
2024/02/17 05:35:34;;;;;;;54.70;20.48;;;2.50;99.90;;;;;;4932190;29;20115;-76
2024/02/17 05:38:04;;;;;;;56.38;20.73;;;2.60;99.90;;;;;;4931641;29;20044;-76
2024/02/17 05:40:33;;;;;;;75.80;27.65;;;2.60;99.90;;;;;;4937286;29;20524;-76
2024/02/17 05:43:01;;;;;;;63.88;26.30;;;2.50;99.90;;;;;;4939802;29;20067;-77
2024/02/17 05:45:29;;;;;;;66.18;24.95;;;2.50;99.90;;;;;;4933871;29;20095;-77
2024/02/17 05:47:58;;;;;;;58.10;23.23;;;2.50;99.90;;;;;;4935088;29;20051;-77
2024/02/17 05:50:26;;;;;;;65.43;24.88;;;2.60;99.90;;;;;;4936467;29;20052;-77
2024/02/17 05:52:55;;;;;;;61.67;24.08;;;2.60;99.90;;;;;;4934561;29;20058;-77
2024/02/17 05:55:25;;;;;;;57.78;23.58;;;2.50;99.90;;;;;;4919837;29;20043;-77
2024/02/17 05:57:53;;;;;;;57.92;23.58;;;2.50;99.90;;;;;;4916194;29;20509;-75
2024/02/17 06:00:22;;;;;;;64.90;24.52;;;2.50;99.90;;;;;;4933908;29;20143;-76
2024/02/17 06:02:50;;;;;;;56.55;23.92;;;2.50;99.90;;;;;;4920569;29;20052;-75
2024/02/17 06:05:19;;;;;;;62.05;21.90;;;2.50;99.90;;;;;;4933607;29;20067;-76
2024/02/17 06:07:47;;;;;;;62.97;24.88;;;2.50;99.90;;;;;;4922712;29;20115;-75
2024/02/17 06:10:16;;;;;;;54.15;23.50;;;2.50;99.90;;;;;;4939654;29;20048;-76
2024/02/17 06:12:48;;;;;;;52.58;23.67;;;2.50;99.90;;;;;;4929852;29;20131;-76
2024/02/17 06:15:17;;;;;;;56.33;23.13;;;2.50;99.90;;;;;;4936448;29;20043;-76
2024/02/17 06:17:49;;;;;;;62.35;24.15;;;2.50;99.90;;;;;;4923511;29;20054;-76
2024/02/17 06:23:03;;;;;;;63.40;24.35;;;2.60;99.90;;;;;;4923619;29;20044;-77
2024/02/17 06:25:32;;;;;;;66.05;25.50;;;2.50;99.90;;;;;;4920270;29;20523;-77
2024/02/17 06:28:02;;;;;;;64.65;26.90;;;2.50;99.90;;;;;;4925258;29;20054;-77
2024/02/17 06:30:31;;;;;;;77.78;30.00;;;2.60;99.90;;;;;;4941714;29;20473;-77
2024/02/17 06:33:00;;;;;;;68.07;28.77;;;3.10;99.90;;;;;;4932764;29;20048;-77
2024/02/17 06:35:28;;;;;;;72.32;28.90;;;2.60;99.90;;;;;;4932467;29;20075;-76
2024/02/17 06:37:57;;;;;;;102.72;39.47;;;2.70;99.90;;;;;;4917400;29;20044;-76
2024/02/17 06:40:25;;;;;;;87.35;36.22;;;2.80;99.90;;;;;;4936853;29;20040;-76
2024/02/17 06:42:54;;;;;;;74.82;30.75;;;2.90;99.90;;;;;;4925002;29;20051;-76
2024/02/17 06:45:24;;;;;;;76.25;30.23;;;2.90;99.90;;;;;;4918813;29;20048;-77
2024/02/17 06:47:52;;;;;;;79.88;29.83;;;3.00;99.90;;;;;;4923681;29;20052;-77
2024/02/17 06:50:21;;;;;;;77.10;29.95;;;3.00;99.90;;;;;;4919938;29;20095;-77
2024/02/17 06:52:53;;;;;;;75.68;29.75;;;3.10;99.90;;;;;;4919613;29;20551;-77
2024/02/17 06:55:21;;;;;;;72.95;29.38;;;3.20;99.90;;;;;;4920483;29;20126;-76
2024/02/17 06:57:50;;;;;;;76.72;31.08;;;3.20;99.90;;;;;;4917847;29;20209;-77
2024/02/17 07:00:19;;;;;;;78.28;29.95;;;3.20;99.90;;;;;;4933128;29;20465;-76
2024/02/17 07:02:49;;;;;;;79.85;33.97;;;3.30;99.90;;;;;;4936915;29;20075;-76
2024/02/17 07:05:17;;;;;;;82.05;32.78;;;3.40;99.90;;;;;;4930191;29;20048;-76
2024/02/17 07:07:46;;;;;;;84.93;32.67;;;3.50;99.90;;;;;;4922964;29;20070;-77
2024/02/17 07:10:14;;;;;;;94.75;36.03;;;3.50;99.90;;;;;;4925862;29;20052;-76
2024/02/17 07:12:42;;;;;;;86.65;33.78;;;3.60;99.90;;;;;;4921134;29;20072;-77
2024/02/17 07:15:11;;;;;;;89.00;36.03;;;3.60;99.90;;;;;;4934929;29;20158;-77
2024/02/17 07:17:39;;;;;;;88.97;35.97;;;3.70;99.90;;;;;;4919949;29;20051;-77
2024/02/17 07:20:11;;;;;;;85.25;33.00;;;3.80;99.90;;;;;;4930887;29;20044;-77
2024/02/17 07:22:39;;;;;;;75.85;30.35;;;3.80;99.90;;;;;;4919358;29;20142;-77
2024/02/17 07:25:10;;;;;;;70.78;30.85;;;3.90;99.90;;;;;;4937013;29;20064;-76
2024/02/17 07:27:40;;;;;;;73.43;29.65;;;4.00;99.90;;;;;;4918054;29;20055;-77
2024/02/17 07:30:09;;;;;;;60.72;26.30;;;4.10;99.90;;;;;;4925178;29;20063;-76
2024/02/17 07:32:38;;;;;;;63.75;25.63;;;4.20;99.90;;;;;;4930862;29;20055;-76
2024/02/17 07:35:09;;;;;;;57.40;24.55;;;4.30;99.90;;;;;;4915800;29;20051;-76
2024/02/17 07:37:38;;;;;;;58.95;24.67;;;4.40;99.90;;;;;;4932399;29;20138;-76
2024/02/17 07:40:08;;;;;;;62.08;27.02;;;4.50;99.90;;;;;;4935403;29;20048;-75
2024/02/17 07:42:37;;;;;;;64.35;27.13;;;4.60;99.90;;;;;;4934085;29;20048;-76
2024/02/17 07:45:06;;;;;;;70.90;29.17;;;4.70;99.90;;;;;;4931197;29;20566;-76
2024/02/17 07:47:35;;;;;;;89.85;34.67;;;4.80;99.90;;;;;;4918462;29;20048;-76
2024/02/17 07:50:04;;;;;;;104.57;40.75;;;4.90;99.90;;;;;;4927387;29;20052;-76
2024/02/17 07:52:35;;;;;;;74.28;30.50;;;5.00;99.90;;;;;;4934176;29;20103;-76
2024/02/17 07:55:04;;;;;;;59.42;27.27;;;5.10;99.90;;;;;;4916426;29;20044;-76
2024/02/17 07:57:32;;;;;;;56.22;24.02;;;5.10;99.90;;;;;;4932608;29;20119;-76
2024/02/17 08:00:02;;;;;;;63.78;26.73;;;5.20;99.90;;;;;;4918572;29;20077;-76
2024/02/17 08:02:31;;;;;;;51.25;23.42;;;5.40;99.90;;;;;;4929686;29;20076;-76
2024/02/17 08:05:00;;;;;;;44.25;19.17;;;5.40;99.90;;;;;;4913169;29;20054;-76
2024/02/17 08:07:28;;;;;;;51.88;20.55;;;5.50;99.90;;;;;;4933794;29;20135;-76
2024/02/17 08:09:58;;;;;;;43.42;19.55;;;5.60;99.90;;;;;;4928629;29;20043;-77
2024/02/17 08:12:27;;;;;;;47.78;21.92;;;5.60;99.90;;;;;;4930448;29;20465;-76
2024/02/17 08:14:56;;;;;;;43.72;18.48;;;5.70;99.90;;;;;;4914717;29;20067;-76
2024/02/17 08:17:24;;;;;;;45.05;18.10;;;5.80;99.90;;;;;;4912339;29;20580;-76
2024/02/17 08:19:52;;;;;;;47.22;20.52;;;5.90;99.90;;;;;;4915311;29;20110;-76
2024/02/17 08:22:22;;;;;;;43.90;18.25;;;6.00;99.90;;;;;;4933693;29;20044;-76
2024/02/17 08:24:50;;;;;;;40.05;18.85;;;6.10;99.90;;;;;;4928573;29;20941;-76
2024/02/17 08:27:20;;;;;;;39.05;17.98;;;6.10;99.90;;;;;;4930812;29;20103;-77
2024/02/17 08:29:49;;;;;;;41.50;20.17;;;6.30;99.90;;;;;;4929350;29;20054;-76
2024/02/17 08:32:18;;;;;;;37.25;16.30;;;6.40;99.90;;;;;;4913717;29;20552;-76
2024/02/17 08:34:48;;;;;;;38.45;15.80;;;6.40;99.90;;;;;;4919185;29;20505;-77
2024/02/17 08:37:17;;;;;;;32.03;14.88;;;6.50;99.90;;;;;;4920341;29;20058;-77
2024/02/17 08:39:49;;;;;;;31.48;13.77;;;6.60;99.90;;;;;;4937040;29;20417;-78
2024/02/17 08:42:17;;;;;;;32.13;14.98;;;6.80;99.90;;;;;;4919612;29;20127;-77
2024/02/17 08:44:52;;;;;;;33.72;14.45;;;6.90;99.90;;;;;;4937011;29;20058;-77
2024/02/17 08:47:21;;;;;;;32.25;15.25;;;7.00;99.90;;;;;;4921782;29;20043;-77
2024/02/17 08:49:49;;;;;;;34.05;15.05;;;7.10;99.90;;;;;;4936236;29;20062;-77
2024/02/17 08:52:19;;;;;;;30.17;14.10;;;7.20;99.90;;;;;;4914319;29;20060;-77
2024/02/17 08:54:47;;;;;;;28.85;13.10;;;7.20;99.90;;;;;;4919697;29;20058;-77
2024/02/17 08:57:16;;;;;;;30.25;13.82;;;7.20;99.90;;;;;;4932401;29;20044;-77
2024/02/17 08:59:44;;;;;;;35.13;15.15;;;7.40;99.90;;;;;;4931967;29;20059;-77
2024/02/17 09:02:17;;;;;;;33.15;13.88;;;7.50;99.90;;;;;;4922019;29;20143;-77
2024/02/17 09:04:47;;;;;;;29.17;13.63;;;7.60;99.90;;;;;;4922165;29;20044;-77
2024/02/17 09:07:16;;;;;;;30.67;13.25;;;7.70;99.90;;;;;;4938695;29;20079;-77
2024/02/17 09:09:45;;;;;;;29.55;13.23;;;7.70;99.90;;;;;;4934985;29;20052;-77
2024/02/17 09:12:13;;;;;;;26.33;11.38;;;7.80;99.90;;;;;;4939078;29;20051;-77
2024/02/17 09:14:42;;;;;;;27.67;13.15;;;7.80;99.90;;;;;;4921816;29;20043;-77
2024/02/17 09:17:10;;;;;;;18.23;9.18;;;8.00;99.90;;;;;;4933883;29;20048;-77
2024/02/17 09:19:40;;;;;;;21.92;9.32;;;8.00;99.90;;;;;;4934993;29;20071;-77
2024/02/17 09:22:09;;;;;;;21.85;9.10;;;8.10;99.90;;;;;;4938315;29;20071;-76
2024/02/17 09:24:37;;;;;;;24.35;11.15;;;8.20;99.90;;;;;;4914287;29;20054;-76
2024/02/17 09:27:09;;;;;;;27.75;11.45;;;8.30;99.90;;;;;;4929025;29;20036;-77
2024/02/17 09:29:37;;;;;;;27.83;11.63;;;8.30;99.90;;;;;;4934569;29;20043;-77
2024/02/17 09:32:06;;;;;;;28.08;12.15;;;8.40;99.90;;;;;;4918538;29;20052;-78
2024/02/17 09:34:36;;;;;;;26.02;12.55;;;8.50;99.90;;;;;;4910387;29;20126;-79
2024/02/17 09:37:08;;;;;;;24.92;12.18;;;8.50;99.90;;;;;;4927981;29;20437;-79
2024/02/17 09:39:39;;;;;;;27.20;11.35;;;8.60;99.90;;;;;;4927159;29;20524;-78
2024/02/17 09:42:07;;;;;;;28.50;12.82;;;8.70;99.90;;;;;;4931559;29;20091;-78
2024/02/17 09:44:37;;;;;;;27.30;12.40;;;8.80;99.90;;;;;;4935916;29;20107;-78
2024/02/17 09:47:05;;;;;;;28.00;11.70;;;8.80;99.90;;;;;;4913534;29;20158;-78
2024/02/17 09:49:36;;;;;;;21.73;10.65;;;8.90;99.90;;;;;;4920121;29;20172;-78
2024/02/17 09:52:07;;;;;;;20.40;10.52;;;9.00;99.90;;;;;;4917525;29;20099;-78
2024/02/17 09:54:38;;;;;;;20.67;10.18;;;9.00;99.90;;;;;;4917428;29;20051;-77
2024/02/17 09:57:08;;;;;;;24.23;10.02;;;9.00;99.90;;;;;;4915647;29;20051;-77
2024/02/17 09:59:37;;;;;;;23.17;9.98;;;9.00;99.90;;;;;;4932746;29;20132;-79
2024/02/17 10:02:06;;;;;;;20.70;10.60;;;9.10;99.90;;;;;;4933805;29;20048;-78
2024/02/17 10:04:34;;;;;;;21.10;10.20;;;9.20;99.90;;;;;;4932414;29;20512;-78
2024/02/17 10:07:03;;;;;;;26.83;11.23;;;9.40;99.90;;;;;;4915443;29;20043;-84
2024/02/17 10:09:36;;;;;;;23.42;11.20;;;9.60;99.90;;;;;;4910949;29;20050;-84
2024/02/17 10:12:07;;;;;;;21.50;9.25;;;9.70;99.90;;;;;;4930834;29;20421;-80
2024/02/17 10:14:36;;;;;;;23.23;11.33;;;9.70;99.90;;;;;;4913025;29;20047;-82
2024/02/17 10:17:06;;;;;;;21.58;9.63;;;9.80;99.90;;;;;;4913998;29;20079;-77
2024/02/17 10:19:34;;;;;;;22.08;10.25;;;10.00;99.90;;;;;;4909935;29;20115;-77
2024/02/17 10:22:02;;;;;;;21.13;10.27;;;10.00;99.90;;;;;;4914103;29;20067;-79
2024/02/17 10:24:32;;;;;;;19.17;10.70;;;10.00;99.90;;;;;;4929272;29;20059;-79
2024/02/17 10:27:01;;;;;;;23.50;11.30;;;10.10;99.90;;;;;;4929530;29;20044;-77
2024/02/17 10:29:30;;;;;;;22.40;10.18;;;10.30;99.90;;;;;;4924602;29;20135;-77
2024/02/17 10:32:00;;;;;;;22.55;10.68;;;10.30;99.50;;;;;;4914025;29;20056;-77
2024/02/17 10:34:28;;;;;;;17.63;10.15;;;10.40;98.70;;;;;;4926505;29;20543;-78
2024/02/17 10:36:57;;;;;;;18.70;9.77;;;10.40;99.00;;;;;;4927102;29;20413;-76
2024/02/17 10:39:27;;;;;;;22.10;10.98;;;10.50;99.20;;;;;;4910141;29;20051;-76
2024/02/17 10:41:58;;;;;;;18.42;9.32;;;10.40;99.80;;;;;;4928181;29;20449;-77
2024/02/17 10:44:28;;;;;;;20.30;11.27;;;10.30;99.80;;;;;;4932342;29;20051;-78
2024/02/17 10:46:58;;;;;;;20.17;10.43;;;10.30;99.40;;;;;;4933979;29;20570;-79
2024/02/17 10:49:28;;;;;;;22.45;11.15;;;10.30;99.90;;;;;;4918722;29;20051;-78
2024/02/17 10:52:01;;;;;;;23.08;11.43;;;10.50;99.90;;;;;;4930314;29;20059;-77
2024/02/17 10:54:37;;;;;;;19.55;10.48;;;10.50;99.90;;;;;;4932393;29;20052;-77
2024/02/17 10:57:11;;;;;;;23.45;11.15;;;10.50;99.90;;;;;;4932729;29;20036;-76
2024/02/17 10:59:43;;;;;;;23.98;11.52;;;10.60;99.70;;;;;;4926226;29;20059;-76
2024/02/17 11:02:16;;;;;;;21.77;11.20;;;10.70;99.90;;;;;;4934797;29;20497;-78
2024/02/17 11:04:45;;;;;;;21.92;11.18;;;10.90;99.40;;;;;;4929534;29;20051;-77
2024/02/17 11:07:17;;;;;;;23.58;10.57;;;11.00;99.90;;;;;;4926146;29;20052;-78
2024/02/17 11:09:46;;;;;;;20.90;10.90;;;11.00;98.40;;;;;;4929554;29;20051;-75
2024/02/17 11:12:49;;;;;;;19.27;9.63;;;11.10;98.10;;;;;;4933041;29;20047;-78
2024/02/17 11:15:19;;;;;;;15.40;8.45;;;11.10;96.80;;;;;;4930774;29;20102;-78
2024/02/17 11:17:51;;;;;;;16.48;8.02;;;11.10;97.00;;;;;;4917418;29;20405;-80
2024/02/17 11:20:21;;;;;;;19.37;9.13;;;11.20;96.40;;;;;;4932517;29;20061;-76
2024/02/17 11:22:54;;;;;;;19.85;9.95;;;11.20;95.10;;;;;;4933532;29;20417;-77
2024/02/17 11:25:27;;;;;;;;;;;11.20;95.00;;;;;;4934894;29;20051;-77
2024/02/17 11:27:57;;;;;;;;;;;11.30;95.10;;;;;;4918114;29;20016;-80
2024/02/17 11:30:26;;;;;;;;;;;11.30;95.80;;;;;;4921443;29;19926;-80
2024/02/17 11:32:57;;;;;;;;;;;11.40;94.80;;;;;;4928161;29;20388;-77
2024/02/17 11:35:28;;;;;;;;;;;11.50;94.90;;;;;;4929228;29;19954;-79
2024/02/17 11:37:57;;;;;;;;;;;11.60;95.00;;;;;;4929104;29;19953;-78
2024/02/17 11:40:25;;;;;;;;;;;11.80;95.40;;;;;;4926991;29;20344;-79
2024/02/17 11:42:57;;;;;;;;;;;11.90;93.50;;;;;;4914801;29;20021;-76
2024/02/17 11:45:27;;;;;;;;;;;12.10;93.10;;;;;;4912260;29;19923;-80
2024/02/17 11:47:55;;;;;;;;;;;12.20;93.00;;;;;;4912326;29;20013;-80
2024/02/17 11:50:24;;;;;;;;;;;12.20;93.00;;;;;;4904953;29;19923;-80
2024/02/17 11:52:53;;;;;;;;;;;12.20;92.80;;;;;;4911920;29;20021;-76
2024/02/17 11:55:22;;;;;;;;;;;12.10;92.60;;;;;;4911033;29;19922;-79
2024/02/17 11:57:51;;;;;;;;;;;12.20;93.50;;;;;;4927605;29;20014;-79
2024/02/17 12:00:19;;;;;;;;;;;12.10;94.00;;;;;;4911916;29;19923;-77
2024/02/17 12:02:50;;;;;;;;;;;12.00;94.00;;;;;;4909776;29;20010;-76
2024/02/17 12:05:22;;;;;;;;;;;12.00;94.20;;;;;;4910195;29;20021;-79
2024/02/17 12:07:51;;;;;;;;;;;12.20;94.30;;;;;;4914119;29;19982;-77
2024/02/17 12:10:19;;;;;;;;;;;12.20;94.40;;;;;;4931401;29;19922;-80
2024/02/17 12:12:47;;;;;;;;;;;12.30;94.50;;;;;;4931814;29;19930;-76
2024/02/17 12:15:18;;;;;;;;;;;12.20;93.50;;;;;;4906864;29;20040;-76
2024/02/17 12:17:48;;;;;;;;;;;12.20;95.40;;;;;;4926578;29;20320;-77
2024/02/17 12:20:19;;;;;;;;;;;12.40;94.90;;;;;;4912813;29;19933;-76
2024/02/17 12:22:48;;;;;;;;;;;12.40;94.80;;;;;;4930335;29;20021;-77
2024/02/17 12:25:17;;;;;;;;;;;12.40;94.10;;;;;;4927083;29;20451;-77
2024/02/17 12:27:48;;;;;;;;;;;12.50;94.50;;;;;;4929917;29;19927;-77
2024/02/17 12:30:18;;;;;;;;;;;12.40;93.80;;;;;;4886090;29;20023;-79
2024/02/17 12:32:46;;;;;;;;;;;12.50;94.50;;;;;;4883259;29;19967;-78
2024/02/17 12:35:17;;;;;;;;;;;12.50;93.60;;;;;;4873911;29;19927;-79
2024/02/17 12:37:47;;;;;;;;;;;12.40;93.00;;;;;;4886591;29;19929;-75
2024/02/17 12:40:16;;;;;;;;;;;12.30;92.70;;;;;;4869666;29;20373;-79
2024/02/17 12:42:44;;;;;;;;;;;12.40;94.30;;;;;;4885642;29;20046;-75
2024/02/17 12:45:26;;;;;;;;;;;12.50;94.50;;;;;;4881212;29;20003;-77
2024/02/17 12:47:54;;;;;;;;;;;12.50;93.20;;;;;;4886234;29;19924;-76
2024/02/17 12:50:24;;;;;;;;;;;12.60;93.20;;;;;;4884283;29;19952;-76
2024/02/17 12:53:05;;;;;;;;;;;12.60;92.70;;;;;;4891684;29;19930;-77
2024/02/17 12:55:36;;;;;;;;;;;12.60;92.30;;;;;;4873449;29;19932;-77
2024/02/17 12:58:04;;;;;;;;;;;12.70;92.20;;;;;;4883651;29;19930;-79
2024/02/17 13:00:34;;;;;;;;;;;12.70;93.50;;;;;;4888177;29;19939;-80